sensor_id;sensor_type;location;lat;lon;timestamp;pressure;altitude;pressure_sealevel;temperature;humidity
70544;BME280;58097;48.364;-1.224;2023-03-20T00:00:06;100254.13;;;7.91;73.00
70544;BME280;58097;48.364;-1.224;2023-03-20T00:02:35;100258.63;;;7.92;73.47
70544;BME280;58097;48.364;-1.224;2023-03-20T00:05:14;100249.63;;;7.90;73.45
70544;BME280;58097;48.364;-1.224;2023-03-20T00:07:40;100241.25;;;7.92;73.51
70544;BME280;58097;48.364;-1.224;2023-03-20T00:10:06;100251.97;;;7.95;73.29
70544;BME280;58097;48.364;-1.224;2023-03-20T00:12:32;100248.50;;;7.93;73.19
70544;BME280;58097;48.364;-1.224;2023-03-20T00:15:13;100252.25;;;7.92;73.09
70544;BME280;58097;48.364;-1.224;2023-03-20T00:17:40;100248.03;;;7.88;72.85
70544;BME280;58097;48.364;-1.224;2023-03-20T00:20:08;100254.81;;;7.84;72.94
70544;BME280;58097;48.364;-1.224;2023-03-20T00:22:37;100252.34;;;7.81;72.87
70544;BME280;58097;48.364;-1.224;2023-03-20T00:25:03;100250.69;;;7.78;73.02
70544;BME280;58097;48.364;-1.224;2023-03-20T00:27:29;100249.84;;;7.77;73.26
70544;BME280;58097;48.364;-1.224;2023-03-20T00:29:54;100238.97;;;7.76;73.15
70544;BME280;58097;48.364;-1.224;2023-03-20T00:32:20;100242.59;;;7.76;73.59
70544;BME280;58097;48.364;-1.224;2023-03-20T00:34:45;100239.56;;;7.80;73.20
70544;BME280;58097;48.364;-1.224;2023-03-20T00:37:11;100237.44;;;7.83;73.48
70544;BME280;58097;48.364;-1.224;2023-03-20T00:39:36;100237.03;;;7.88;73.83
70544;BME280;58097;48.364;-1.224;2023-03-20T00:42:04;100231.66;;;7.86;73.90
70544;BME280;58097;48.364;-1.224;2023-03-20T00:44:36;100228.50;;;7.91;73.27
70544;BME280;58097;48.364;-1.224;2023-03-20T00:49:40;100231.69;;;7.96;73.23
70544;BME280;58097;48.364;-1.224;2023-03-20T00:52:05;100232.56;;;7.96;73.21
70544;BME280;58097;48.364;-1.224;2023-03-20T00:54:31;100231.69;;;7.96;72.88
70544;BME280;58097;48.364;-1.224;2023-03-20T00:57:08;100242.97;;;7.93;72.99
70544;BME280;58097;48.364;-1.224;2023-03-20T00:59:52;100241.09;;;7.93;73.07
70544;BME280;58097;48.364;-1.224;2023-03-20T01:02:18;100242.97;;;7.93;73.24
70544;BME280;58097;48.364;-1.224;2023-03-20T01:04:45;100233.84;;;7.92;73.23
70544;BME280;58097;48.364;-1.224;2023-03-20T01:07:13;100235.47;;;7.95;73.02
70544;BME280;58097;48.364;-1.224;2023-03-20T01:09:40;100227.94;;;7.97;73.29
70544;BME280;58097;48.364;-1.224;2023-03-20T01:12:05;100231.69;;;7.96;73.23
70544;BME280;58097;48.364;-1.224;2023-03-20T01:14:32;100240.97;;;7.95;73.39
70544;BME280;58097;48.364;-1.224;2023-03-20T01:16:57;100235.19;;;7.98;73.34
70544;BME280;58097;48.364;-1.224;2023-03-20T01:19:23;100238.66;;;8.00;73.36
70544;BME280;58097;48.364;-1.224;2023-03-20T01:21:48;100234.91;;;8.01;73.37
70544;BME280;58097;48.364;-1.224;2023-03-20T01:24:13;100227.53;;;8.01;73.22
70544;BME280;58097;48.364;-1.224;2023-03-20T01:26:41;100235.63;;;8.03;73.14
70544;BME280;58097;48.364;-1.224;2023-03-20T01:29:25;100237.38;;;8.04;73.32
70544;BME280;58097;48.364;-1.224;2023-03-20T01:31:54;100229.13;;;8.04;73.29
70544;BME280;58097;48.364;-1.224;2023-03-20T01:34:20;100228.84;;;8.07;73.26
70544;BME280;58097;48.364;-1.224;2023-03-20T01:36:51;100216.56;;;8.11;73.21
70544;BME280;58097;48.364;-1.224;2023-03-20T01:39:19;100214.56;;;8.13;73.25
70544;BME280;58097;48.364;-1.224;2023-03-20T01:41:46;100216.16;;;8.16;73.41
70544;BME280;58097;48.364;-1.224;2023-03-20T01:44:20;100218.78;;;8.17;73.49
70544;BME280;58097;48.364;-1.224;2023-03-20T01:46:46;100219.22;;;8.22;73.58
70544;BME280;58097;48.364;-1.224;2023-03-20T01:51:44;100213.84;;;8.21;73.43
70544;BME280;58097;48.364;-1.224;2023-03-20T01:54:13;100211.97;;;8.21;73.30
70544;BME280;58097;48.364;-1.224;2023-03-20T01:56:46;100212.25;;;8.18;73.46
70544;BME280;58097;48.364;-1.224;2023-03-20T01:59:22;100208.63;;;8.18;73.27
70544;BME280;58097;48.364;-1.224;2023-03-20T02:01:49;100207.75;;;8.17;73.36
70544;BME280;58097;48.364;-1.224;2023-03-20T02:04:15;100210.22;;;8.20;73.28
70544;BME280;58097;48.364;-1.224;2023-03-20T02:06:43;100210.97;;;8.22;73.20
70544;BME280;58097;48.364;-1.224;2023-03-20T02:09:10;100210.69;;;8.25;73.23
70544;BME280;58097;48.364;-1.224;2023-03-20T02:11:38;100213.28;;;8.27;73.29
70544;BME280;58097;48.364;-1.224;2023-03-20T02:14:04;100208.38;;;8.30;73.29
70544;BME280;58097;48.364;-1.224;2023-03-20T02:16:31;100205.38;;;8.33;73.30
70544;BME280;58097;48.364;-1.224;2023-03-20T02:18:57;100213.50;;;8.35;73.25
70544;BME280;58097;48.364;-1.224;2023-03-20T02:29:48;100190.41;;;8.26;72.77
70544;BME280;58097;48.364;-1.224;2023-03-20T02:33:35;100191.25;;;8.27;72.76
70544;BME280;58097;48.364;-1.224;2023-03-20T02:44:15;100156.69;;;8.34;72.96
70544;BME280;58097;48.364;-1.224;2023-03-20T02:46:55;100157.94;;;8.30;73.08
70544;BME280;58097;48.364;-1.224;2023-03-20T03:00:36;100163.44;;;8.20;73.02
70544;BME280;58097;48.364;-1.224;2023-03-20T03:03:11;100160.69;;;8.20;72.96
70544;BME280;58097;48.364;-1.224;2023-03-20T03:05:42;100157.06;;;8.20;73.24
70544;BME280;58097;48.364;-1.224;2023-03-20T03:08:12;100155.16;;;8.20;73.42
70544;BME280;58097;48.364;-1.224;2023-03-20T03:10:43;100156.31;;;8.18;73.41
70544;BME280;58097;48.364;-1.224;2023-03-20T03:13:16;100158.22;;;8.17;73.41
70544;BME280;58097;48.364;-1.224;2023-03-20T03:15:46;100158.34;;;8.16;73.44
70544;BME280;58097;48.364;-1.224;2023-03-20T03:18:18;100166.59;;;8.16;73.34
70544;BME280;58097;48.364;-1.224;2023-03-20T03:20:47;100165.75;;;8.15;73.36
70544;BME280;58097;48.364;-1.224;2023-03-20T03:23:24;100160.09;;;8.17;73.39
70544;BME280;58097;48.364;-1.224;2023-03-20T03:25:51;100151.84;;;8.17;73.33
70544;BME280;58097;48.364;-1.224;2023-03-20T03:28:35;100156.47;;;8.16;73.26
70544;BME280;58097;48.364;-1.224;2023-03-20T03:31:07;100159.22;;;8.16;73.17
70544;BME280;58097;48.364;-1.224;2023-03-20T03:33:38;100158.50;;;8.14;73.10
70544;BME280;58097;48.364;-1.224;2023-03-20T03:36:18;100159.34;;;8.15;73.23
70544;BME280;58097;48.364;-1.224;2023-03-20T03:39:11;100151.25;;;8.13;73.23
70544;BME280;58097;48.364;-1.224;2023-03-20T03:44:25;100156.03;;;8.11;73.07
70544;BME280;58097;48.364;-1.224;2023-03-20T03:46:59;100151.38;;;8.12;73.11
70544;BME280;58097;48.364;-1.224;2023-03-20T03:49:31;100155.25;;;8.09;73.13
70544;BME280;58097;48.364;-1.224;2023-03-20T03:52:02;100156.03;;;8.11;73.34
70544;BME280;58097;48.364;-1.224;2023-03-20T03:54:34;100145.75;;;8.13;73.32
70544;BME280;58097;48.364;-1.224;2023-03-20T03:57:03;100145.59;;;8.15;73.36
70544;BME280;58097;48.364;-1.224;2023-03-20T03:59:36;100145.47;;;8.16;73.48
70544;BME280;58097;48.364;-1.224;2023-03-20T04:02:04;100144.44;;;8.17;73.42
70544;BME280;58097;48.364;-1.224;2023-03-20T04:04:31;100140.53;;;8.20;73.36
70544;BME280;58097;48.364;-1.224;2023-03-20T04:06:57;100147.78;;;8.21;73.22
70544;BME280;58097;48.364;-1.224;2023-03-20T04:09:22;100142.00;;;8.24;73.00
70544;BME280;58097;48.364;-1.224;2023-03-20T04:11:52;100147.50;;;8.24;72.90
70544;BME280;58097;48.364;-1.224;2023-03-20T04:14:17;100150.09;;;8.25;72.93
70544;BME280;58097;48.364;-1.224;2023-03-20T04:16:43;100142.56;;;8.27;72.77
70544;BME280;58097;48.364;-1.224;2023-03-20T04:19:09;100137.06;;;8.27;73.11
70544;BME280;58097;48.364;-1.224;2023-03-20T04:21:35;100125.78;;;8.30;73.08
70544;BME280;58097;48.364;-1.224;2023-03-20T04:24:00;100129.41;;;8.31;73.20
70544;BME280;58097;48.364;-1.224;2023-03-20T04:26:26;100130.25;;;8.31;73.12
70544;BME280;58097;48.364;-1.224;2023-03-20T04:28:51;100129.25;;;8.23;73.13
70544;BME280;58097;48.364;-1.224;2023-03-20T04:31:17;100131.13;;;8.22;73.18
70544;BME280;58097;48.364;-1.224;2023-03-20T04:33:43;100129.25;;;8.23;73.14
70544;BME280;58097;48.364;-1.224;2023-03-20T04:36:08;100140.97;;;8.25;73.29
70544;BME280;58097;48.364;-1.224;2023-03-20T04:38:35;100128.38;;;8.22;73.21
70544;BME280;58097;48.364;-1.224;2023-03-20T04:41:01;100124.59;;;8.23;73.44
70544;BME280;58097;48.364;-1.224;2023-03-20T04:43:26;100126.34;;;8.24;73.54
70544;BME280;58097;48.364;-1.224;2023-03-20T04:45:52;100128.38;;;8.22;73.43
70544;BME280;58097;48.364;-1.224;2023-03-20T04:48:18;100119.09;;;8.23;73.61
70544;BME280;58097;48.364;-1.224;2023-03-20T04:50:43;100124.59;;;8.23;73.91
70544;BME280;58097;48.364;-1.224;2023-03-20T04:53:13;100128.09;;;8.25;73.75
70544;BME280;58097;48.364;-1.224;2023-03-20T04:55:38;100130.09;;;8.23;73.72
70544;BME280;58097;48.364;-1.224;2023-03-20T04:58:03;100129.25;;;8.23;73.71
70544;BME280;58097;48.364;-1.224;2023-03-20T05:00:29;100125.75;;;8.21;73.76
70544;BME280;58097;48.364;-1.224;2023-03-20T05:02:54;100126.78;;;8.20;73.79
70544;BME280;58097;48.364;-1.224;2023-03-20T05:05:20;100122.56;;;8.16;73.94
70544;BME280;58097;48.364;-1.224;2023-03-20T05:07:45;100125.47;;;8.14;74.20
70544;BME280;58097;48.364;-1.224;2023-03-20T05:10:11;100119.22;;;8.12;74.69
70544;BME280;58097;48.364;-1.224;2023-03-20T05:12:36;100122.50;;;8.06;74.81
70544;BME280;58097;48.364;-1.224;2023-03-20T05:15:01;100120.63;;;8.06;75.23
70544;BME280;58097;48.364;-1.224;2023-03-20T05:17:27;100104.25;;;8.05;75.53
70544;BME280;58097;48.364;-1.224;2023-03-20T05:19:52;100109.47;;;8.08;75.44
70544;BME280;58097;48.364;-1.224;2023-03-20T05:22:17;100109.75;;;8.05;75.75
70544;BME280;58097;48.364;-1.224;2023-03-20T05:24:43;100106.00;;;8.06;75.50
70544;BME280;58097;48.364;-1.224;2023-03-20T05:27:09;100115.25;;;8.05;75.42
70544;BME280;58097;48.364;-1.224;2023-03-20T05:29:34;100118.31;;;8.02;75.06
70544;BME280;58097;48.364;-1.224;2023-03-20T05:32:00;100109.47;;;7.98;75.87
70544;BME280;58097;48.364;-1.224;2023-03-20T05:34:25;100109.88;;;7.94;76.15
70544;BME280;58097;48.364;-1.224;2023-03-20T05:36:52;100110.44;;;7.88;76.80
70544;BME280;58097;48.364;-1.224;2023-03-20T05:39:17;100114.22;;;7.87;77.06
70544;BME280;58097;48.364;-1.224;2023-03-20T05:41:42;100107.09;;;7.84;77.72
70544;BME280;58097;48.364;-1.224;2023-03-20T05:44:08;100119.25;;;7.82;78.08
70544;BME280;58097;48.364;-1.224;2023-03-20T05:46:33;100121.72;;;7.85;78.22
70544;BME280;58097;48.364;-1.224;2023-03-20T05:48:59;100122.59;;;7.85;78.24
70544;BME280;58097;48.364;-1.224;2023-03-20T05:51:24;100130.84;;;7.85;78.58
70544;BME280;58097;48.364;-1.224;2023-03-20T05:53:51;100132.88;;;7.83;78.88
70544;BME280;58097;48.364;-1.224;2023-03-20T05:56:16;100125.50;;;7.84;78.31
70544;BME280;58097;48.364;-1.224;2023-03-20T05:58:42;100129.41;;;7.81;78.04
70544;BME280;58097;48.364;-1.224;2023-03-20T06:01:07;100135.16;;;7.78;78.30
70544;BME280;58097;48.364;-1.224;2023-03-20T06:03:33;100131.66;;;7.76;78.76
70544;BME280;58097;48.364;-1.224;2023-03-20T06:05:58;100133.53;;;7.75;78.62
70544;BME280;58097;48.364;-1.224;2023-03-20T06:08:23;100136.28;;;7.75;79.31
70544;BME280;58097;48.364;-1.224;2023-03-20T06:10:50;100132.53;;;7.76;79.55
70544;BME280;58097;48.364;-1.224;2023-03-20T06:13:15;100135.00;;;7.80;79.64
70544;BME280;58097;48.364;-1.224;2023-03-20T06:15:41;100132.00;;;7.83;79.75
70544;BME280;58097;48.364;-1.224;2023-03-20T06:18:06;100131.88;;;7.84;79.39
70544;BME280;58097;48.364;-1.224;2023-03-20T06:20:31;100132.47;;;7.88;79.69
70544;BME280;58097;48.364;-1.224;2023-03-20T06:22:57;100125.34;;;7.85;80.36
70544;BME280;58097;48.364;-1.224;2023-03-20T06:25:22;100130.00;;;7.85;80.11
70544;BME280;58097;48.364;-1.224;2023-03-20T06:27:47;100138.97;;;7.87;79.23
70544;BME280;58097;48.364;-1.224;2023-03-20T06:30:13;100141.28;;;7.82;79.89
70544;BME280;58097;48.364;-1.224;2023-03-20T06:32:39;100139.63;;;7.79;79.54
70544;BME280;58097;48.364;-1.224;2023-03-20T06:35:05;100142.66;;;7.76;79.91
70544;BME280;58097;48.364;-1.224;2023-03-20T06:37:32;100147.31;;;7.75;79.43
70544;BME280;58097;48.364;-1.224;2023-03-20T06:39:57;100151.06;;;7.74;80.09
70544;BME280;58097;48.364;-1.224;2023-03-20T06:42:23;100150.78;;;7.77;80.50
70544;BME280;58097;48.364;-1.224;2023-03-20T06:44:48;100150.66;;;7.79;80.83
70544;BME280;58097;48.364;-1.224;2023-03-20T06:47:14;100154.28;;;7.80;81.27
70544;BME280;58097;48.364;-1.224;2023-03-20T06:49:40;100149.38;;;7.83;80.79
70544;BME280;58097;48.364;-1.224;2023-03-20T06:52:05;100154.75;;;7.85;81.64
70544;BME280;58097;48.364;-1.224;2023-03-20T06:54:31;100159.38;;;7.84;81.80
70544;BME280;58097;48.364;-1.224;2023-03-20T06:56:57;100165.75;;;7.85;81.42
70544;BME280;58097;48.364;-1.224;2023-03-20T06:59:22;100165.63;;;7.86;80.95
70544;BME280;58097;48.364;-1.224;2023-03-20T07:01:48;100164.75;;;7.86;80.60
70544;BME280;58097;48.364;-1.224;2023-03-20T07:04:13;100170.84;;;7.89;80.34
70544;BME280;58097;48.364;-1.224;2023-03-20T07:06:38;100169.09;;;7.88;81.36
70544;BME280;58097;48.364;-1.224;2023-03-20T07:09:04;100170.25;;;7.86;81.62
70544;BME280;58097;48.364;-1.224;2023-03-20T07:11:29;100172.16;;;7.95;80.92
70544;BME280;58097;48.364;-1.224;2023-03-20T07:13:55;100172.91;;;7.97;81.92
70544;BME280;58097;48.364;-1.224;2023-03-20T07:16:20;100166.25;;;7.99;81.87
70544;BME280;58097;48.364;-1.224;2023-03-20T07:18:46;100161.47;;;8.01;82.29
70544;BME280;58097;48.364;-1.224;2023-03-20T07:21:16;100167.16;;;8.10;81.83
70544;BME280;58097;48.364;-1.224;2023-03-20T07:23:43;100163.13;;;8.14;81.76
70544;BME280;58097;48.364;-1.224;2023-03-20T07:26:08;100163.13;;;8.14;81.92
70544;BME280;58097;48.364;-1.224;2023-03-20T07:28:34;100165.16;;;8.12;81.82
70544;BME280;58097;48.364;-1.224;2023-03-20T07:31:00;100161.53;;;8.11;81.66
70544;BME280;58097;48.364;-1.224;2023-03-20T07:33:25;100159.78;;;8.10;82.21
70544;BME280;58097;48.364;-1.224;2023-03-20T07:35:51;100162.84;;;8.17;81.75
70544;BME280;58097;48.364;-1.224;2023-03-20T07:38:17;100160.25;;;8.25;82.05
70544;BME280;58097;48.364;-1.224;2023-03-20T07:40:43;100165.63;;;8.26;82.75
70544;BME280;58097;48.364;-1.224;2023-03-20T07:43:08;100162.88;;;8.26;83.55
70544;BME280;58097;48.364;-1.224;2023-03-20T07:45:33;100167.78;;;8.32;83.04
70544;BME280;58097;48.364;-1.224;2023-03-20T07:47:59;100167.94;;;8.31;83.69
70544;BME280;58097;48.364;-1.224;2023-03-20T07:50:24;100166.38;;;8.38;83.21
70544;BME280;58097;48.364;-1.224;2023-03-20T07:52:50;100167.69;;;8.34;83.00
70544;BME280;58097;48.364;-1.224;2023-03-20T07:55:18;100176.53;;;8.37;82.30
70544;BME280;58097;48.364;-1.224;2023-03-20T07:57:43;100170.91;;;8.39;82.40
70544;BME280;58097;48.364;-1.224;2023-03-20T08:00:09;100177.84;;;8.33;82.61
70544;BME280;58097;48.364;-1.224;2023-03-20T08:02:34;100173.06;;;8.35;82.93
70544;BME280;58097;48.364;-1.224;2023-03-20T08:05:00;100182.81;;;8.40;83.59
70544;BME280;58097;48.364;-1.224;2023-03-20T08:07:25;100179.19;;;8.49;83.52
70544;BME280;58097;48.364;-1.224;2023-03-20T08:09:53;100181.22;;;8.56;83.58
70544;BME280;58097;48.364;-1.224;2023-03-20T08:12:19;100183.28;;;8.64;83.47
70544;BME280;58097;48.364;-1.224;2023-03-20T08:14:44;100179.69;;;8.73;83.30
70544;BME280;58097;48.364;-1.224;2023-03-20T08:17:09;100178.66;;;8.74;83.48
70544;BME280;58097;48.364;-1.224;2023-03-20T08:19:35;100176.50;;;8.78;83.79
70544;BME280;58097;48.364;-1.224;2023-03-20T08:22:02;100181.84;;;8.79;83.11
70544;BME280;58097;48.364;-1.224;2023-03-20T08:24:28;100183.88;;;8.77;82.80
70544;BME280;58097;48.364;-1.224;2023-03-20T08:26:54;100191.28;;;8.77;83.29
70544;BME280;58097;48.364;-1.224;2023-03-20T08:29:19;100187.22;;;8.81;83.29
70544;BME280;58097;48.364;-1.224;2023-03-20T08:31:45;100192.72;;;8.90;83.37
70544;BME280;58097;48.364;-1.224;2023-03-20T08:34:10;100197.25;;;9.01;83.02
70544;BME280;58097;48.364;-1.224;2023-03-20T08:36:36;100206.25;;;9.13;83.13
70544;BME280;58097;48.364;-1.224;2023-03-20T08:39:02;100197.38;;;9.19;83.27
70544;BME280;58097;48.364;-1.224;2023-03-20T08:41:27;100200.72;;;9.22;82.93
70544;BME280;58097;48.364;-1.224;2023-03-20T08:43:52;100200.75;;;9.32;83.11
70544;BME280;58097;48.364;-1.224;2023-03-20T08:46:18;100202.47;;;9.33;83.26
70544;BME280;58097;48.364;-1.224;2023-03-20T08:48:43;100204.06;;;9.36;82.72
70544;BME280;58097;48.364;-1.224;2023-03-20T08:51:08;100198.09;;;9.40;83.00
70544;BME280;58097;48.364;-1.224;2023-03-20T08:53:34;100186.34;;;9.38;83.67
70544;BME280;58097;48.364;-1.224;2023-03-20T08:55:59;100188.38;;;9.46;83.02
70544;BME280;58097;48.364;-1.224;2023-03-20T08:58:25;100192.16;;;9.45;83.58
70544;BME280;58097;48.364;-1.224;2023-03-20T09:00:51;100184.28;;;9.50;84.04
70544;BME280;58097;48.364;-1.224;2023-03-20T09:03:18;100196.78;;;9.63;84.37
70544;BME280;58097;48.364;-1.224;2023-03-20T09:05:48;100202.09;;;9.75;83.93
70544;BME280;58097;48.364;-1.224;2023-03-20T09:08:15;100197.59;;;9.83;83.55
70544;BME280;58097;48.364;-1.224;2023-03-20T09:10:40;100198.31;;;9.85;83.70
70544;BME280;58097;48.364;-1.224;2023-03-20T09:13:06;100198.75;;;9.81;82.99
70544;BME280;58097;48.364;-1.224;2023-03-20T09:15:33;100207.31;;;9.87;82.88
70544;BME280;58097;48.364;-1.224;2023-03-20T09:17:58;100202.22;;;9.83;83.26
70544;BME280;58097;48.364;-1.224;2023-03-20T09:20:24;100198.59;;;9.82;83.82
70544;BME280;58097;48.364;-1.224;2023-03-20T09:22:49;100195.81;;;9.92;83.49
70544;BME280;58097;48.364;-1.224;2023-03-20T09:25:14;100197.97;;;9.98;83.87
70544;BME280;58097;48.364;-1.224;2023-03-20T09:27:40;100198.69;;;10.00;83.93
70544;BME280;58097;48.364;-1.224;2023-03-20T09:30:06;100197.22;;;10.06;83.79
70544;BME280;58097;48.364;-1.224;2023-03-20T09:32:33;100202.28;;;10.10;83.94
70544;BME280;58097;48.364;-1.224;2023-03-20T09:34:59;100191.38;;;10.18;83.89
70544;BME280;58097;48.364;-1.224;2023-03-20T09:37:25;100185.56;;;10.21;83.51
70544;BME280;58097;48.364;-1.224;2023-03-20T09:39:51;100185.66;;;10.30;83.10
70544;BME280;58097;48.364;-1.224;2023-03-20T09:45:14;100182.88;;;10.84;83.11
70544;BME280;58097;48.364;-1.224;2023-03-20T09:50:24;100187.09;;;11.06;81.71
70544;BME280;58097;48.364;-1.224;2023-03-20T09:53:14;100188.66;;;11.09;81.00
70544;BME280;58097;48.364;-1.224;2023-03-20T09:55:42;100183.34;;;11.15;81.00
70544;BME280;58097;48.364;-1.224;2023-03-20T09:58:12;100180.28;;;11.18;80.69
70544;BME280;58097;48.364;-1.224;2023-03-20T10:00:42;100184.72;;;11.29;80.56
70544;BME280;58097;48.364;-1.224;2023-03-20T10:05:53;100180.66;;;11.41;80.19
70544;BME280;58097;48.364;-1.224;2023-03-20T10:08:24;100182.44;;;11.51;79.63
70544;BME280;58097;48.364;-1.224;2023-03-20T10:13:40;100194.38;;;11.51;79.06
70544;BME280;58097;48.364;-1.224;2023-03-20T10:16:37;100184.59;;;11.57;78.63
70544;BME280;58097;48.364;-1.224;2023-03-20T10:19:15;100189.97;;;11.58;78.33
70544;BME280;58097;48.364;-1.224;2023-03-20T10:21:47;100184.97;;;11.62;77.53
70544;BME280;58097;48.364;-1.224;2023-03-20T10:24:22;100182.00;;;11.81;78.90
70544;BME280;58097;48.364;-1.224;2023-03-20T10:26:51;100180.09;;;12.07;79.26
70544;BME280;58097;48.364;-1.224;2023-03-20T10:32:19;100175.97;;;12.12;75.76
70544;BME280;58097;48.364;-1.224;2023-03-20T10:38:02;100172.41;;;12.19;75.33
70544;BME280;58097;48.364;-1.224;2023-03-20T10:40:37;100168.47;;;12.30;75.20
70544;BME280;58097;48.364;-1.224;2023-03-20T10:43:14;100182.00;;;12.41;75.53
70544;BME280;58097;48.364;-1.224;2023-03-20T10:45:46;100179.31;;;12.57;75.16
70544;BME280;58097;48.364;-1.224;2023-03-20T10:48:21;100178.28;;;12.66;73.72
70544;BME280;58097;48.364;-1.224;2023-03-20T10:50:55;100166.69;;;12.63;73.08
70544;BME280;58097;48.364;-1.224;2023-03-20T10:55:59;100168.81;;;12.85;73.45
70544;BME280;58097;48.364;-1.224;2023-03-20T10:58:30;100152.19;;;12.93;73.56
70544;BME280;58097;48.364;-1.224;2023-03-20T11:00:57;100148.91;;;12.90;72.45
70544;BME280;58097;48.364;-1.224;2023-03-20T11:03:28;100155.47;;;12.81;72.52
70544;BME280;58097;48.364;-1.224;2023-03-20T11:06:04;100155.94;;;12.68;71.95
70544;BME280;58097;48.364;-1.224;2023-03-20T11:08:39;100163.72;;;12.64;72.66
70544;BME280;58097;48.364;-1.224;2023-03-20T11:11:05;100157.16;;;12.65;73.13
70544;BME280;58097;48.364;-1.224;2023-03-20T11:13:36;100156.47;;;12.71;73.26
70544;BME280;58097;48.364;-1.224;2023-03-20T11:16:20;100151.66;;;12.82;72.83
70544;BME280;58097;48.364;-1.224;2023-03-20T11:18:47;100146.47;;;12.79;72.86
70544;BME280;58097;48.364;-1.224;2023-03-20T11:21:28;100138.31;;;12.85;72.37
70544;BME280;58097;48.364;-1.224;2023-03-20T11:23:55;100131.91;;;12.93;72.67
70544;BME280;58097;48.364;-1.224;2023-03-20T11:26:34;100130.91;;;13.10;72.84
70544;BME280;58097;48.364;-1.224;2023-03-20T11:29:04;100117.91;;;13.19;72.36
70544;BME280;58097;48.364;-1.224;2023-03-20T11:31:34;100122.44;;;13.28;71.66
70544;BME280;58097;48.364;-1.224;2023-03-20T11:36:30;100110.41;;;13.76;73.29
70544;BME280;58097;48.364;-1.224;2023-03-20T11:39:03;100111.25;;;13.93;72.35
70544;BME280;58097;48.364;-1.224;2023-03-20T11:41:30;100106.63;;;14.16;71.01
70544;BME280;58097;48.364;-1.224;2023-03-20T11:43:55;100112.69;;;14.28;69.58
70544;BME280;58097;48.364;-1.224;2023-03-20T11:46:22;100110.19;;;14.49;70.07
70544;BME280;58097;48.364;-1.224;2023-03-20T11:49:06;100115.28;;;14.69;69.81
70544;BME280;58097;48.364;-1.224;2023-03-20T11:51:40;100109.06;;;14.90;70.83
70544;BME280;58097;48.364;-1.224;2023-03-20T11:54:06;100102.06;;;14.94;70.07
70544;BME280;58097;48.364;-1.224;2023-03-20T11:56:50;100101.66;;;15.05;68.38
70544;BME280;58097;48.364;-1.224;2023-03-20T11:59:17;100099.59;;;14.99;67.08
70544;BME280;58097;48.364;-1.224;2023-03-20T12:01:53;100100.28;;;14.78;65.45
70544;BME280;58097;48.364;-1.224;2023-03-20T12:04:28;100093.69;;;14.71;66.72
70544;BME280;58097;48.364;-1.224;2023-03-20T12:07:13;100089.56;;;14.67;66.67
70544;BME280;58097;48.364;-1.224;2023-03-20T12:09:59;100087.69;;;14.59;66.97
70544;BME280;58097;48.364;-1.224;2023-03-20T12:17:58;100074.75;;;14.35;66.11
70544;BME280;58097;48.364;-1.224;2023-03-20T12:20:36;100063.50;;;14.29;66.86
70544;BME280;58097;48.364;-1.224;2023-03-20T12:23:12;100065.97;;;14.23;66.96
70544;BME280;58097;48.364;-1.224;2023-03-20T12:28:37;100057.44;;;14.25;68.23
70544;BME280;58097;48.364;-1.224;2023-03-20T12:31:09;100053.06;;;14.31;69.06
70544;BME280;58097;48.364;-1.224;2023-03-20T12:33:53;100048.59;;;14.21;67.81
70544;BME280;58097;48.364;-1.224;2023-03-20T12:36:38;100051.78;;;14.10;66.85
70544;BME280;58097;48.364;-1.224;2023-03-20T12:39:10;100045.25;;;13.95;66.83
70544;BME280;58097;48.364;-1.224;2023-03-20T12:44:37;100038.59;;;13.65;67.40
70544;BME280;58097;48.364;-1.224;2023-03-20T12:47:14;100031.84;;;13.51;68.10
70544;BME280;58097;48.364;-1.224;2023-03-20T12:52:42;100024.53;;;13.67;68.68
70544;BME280;58097;48.364;-1.224;2023-03-20T12:58:46;100032.84;;;13.67;68.91
70544;BME280;58097;48.364;-1.224;2023-03-20T13:01:21;100032.00;;;13.66;69.21
70544;BME280;58097;48.364;-1.224;2023-03-20T13:06:49;100027.13;;;13.68;70.52
70544;BME280;58097;48.364;-1.224;2023-03-20T13:09:34;100020.19;;;13.64;71.44
70544;BME280;58097;48.364;-1.224;2023-03-20T13:18:20;100011.00;;;13.55;71.49
70544;BME280;58097;48.364;-1.224;2023-03-20T13:20:51;100012.03;;;13.54;71.43
70544;BME280;58097;48.364;-1.224;2023-03-20T13:23:40;100000.75;;;13.64;72.42
70544;BME280;58097;48.364;-1.224;2023-03-20T13:26:16;100001.13;;;13.61;70.53
70544;BME280;58097;48.364;-1.224;2023-03-20T13:31:19;99996.38;;;13.70;71.73
70544;BME280;58097;48.364;-1.224;2023-03-20T13:33:51;99991.38;;;13.57;70.61
70544;BME280;58097;48.364;-1.224;2023-03-20T13:39:09;99989.31;;;13.51;71.09
70544;BME280;58097;48.364;-1.224;2023-03-20T13:41:37;99989.72;;;13.40;70.79
70544;BME280;58097;48.364;-1.224;2023-03-20T13:44:04;99987.25;;;13.45;70.99
70544;BME280;58097;48.364;-1.224;2023-03-20T13:46:41;99986.22;;;13.46;71.07
70544;BME280;58097;48.364;-1.224;2023-03-20T13:51:51;99987.97;;;13.39;70.89
70544;BME280;58097;48.364;-1.224;2023-03-20T14:05:22;99976.38;;;13.35;72.28
70544;BME280;58097;48.364;-1.224;2023-03-20T14:07:55;99968.41;;;13.32;71.56
70544;BME280;58097;48.364;-1.224;2023-03-20T14:12:53;99970.81;;;13.35;71.43
70544;BME280;58097;48.364;-1.224;2023-03-20T14:15:20;99972.38;;;13.38;71.80
70544;BME280;58097;48.364;-1.224;2023-03-20T14:17:47;99971.00;;;13.33;71.47
70544;BME280;58097;48.364;-1.224;2023-03-20T14:20:25;99970.63;;;13.28;72.01
70544;BME280;58097;48.364;-1.224;2023-03-20T14:22:52;99963.03;;;13.30;72.13
70544;BME280;58097;48.364;-1.224;2023-03-20T14:25:20;99965.28;;;13.27;72.45
70544;BME280;58097;48.364;-1.224;2023-03-20T14:28:08;99959.41;;;13.30;72.45
70544;BME280;58097;48.364;-1.224;2023-03-20T14:30:48;99953.66;;;13.23;72.90
70544;BME280;58097;48.364;-1.224;2023-03-20T14:35:45;99955.25;;;13.18;72.76
70544;BME280;58097;48.364;-1.224;2023-03-20T14:40:48;99955.94;;;13.20;72.51
70544;BME280;58097;48.364;-1.224;2023-03-20T14:45:58;99950.56;;;13.18;71.35
70544;BME280;58097;48.364;-1.224;2023-03-20T14:48:46;99952.28;;;13.11;71.48
70544;BME280;58097;48.364;-1.224;2023-03-20T14:51:25;99949.00;;;13.08;70.98